EGAC/BHD METAR and TAF weather

Enter ICAO airport designator
Station Type Date Time Source
EGAC METAR 2018/12/12 22:50 UTC NOAA

EGAC 122250Z AUTO 14014KT 9999 BKN023/// OVC031/// 08/04 Q1010


Station Type Date Time Source
EGAC Decoded METAR 2018/12/12 22:50 UTC NOAA

Belfast / Harbour, United Kingdom (EGAC) 54-36N 005-53W 0M
Dec 12, 2018 - 05:50 PM EST / 2018.12.12 2250 UTC
Wind: from the SE (140 degrees) at 16 MPH (14 KT):0
Visibility: greater than 7 mile(s):0
Sky conditions: overcast
Temperature: 46 F (8 C)
Dew Point: 39 F (4 C)
Relative Humidity: 75%
Pressure (altimeter): 29.83 in. Hg (1010 hPa)
ob: EGAC 122250Z AUTO 14014KT 9999 BKN023/// OVC031/// 08/04 Q1010
cycle: 23

Station Type Date Time Source
EGAC TAF UTC NOAA

Error!


Example: see airport list